Time;durP1;ratioP1;P1;durP2;ratioP2;P2;SDS_P1;SDS_P2;PMS_P1;PMS_P2;Temp;Humidity;BMP_temperature;BMP_pressure;BME280_temperature;BME280_humidity;BME280_pressure;Samples;Min_cycle;Max_cycle;Signal;HPM_P1;HPM_P2
2021/07/09 09:16:06;;;;;;;4.53;4.17;;;;;;;29.99;41.47;101596.20;1818889;78;22788;-87
2021/07/09 09:18:51;;;;;;;5.47;4.40;;;;;;;30.00;41.33;101595.98;1788222;79;20902;-87
2021/07/09 09:21:23;;;;;;;4.87;4.37;;;;;;;30.07;38.17;101591.89;1819131;78;21064;-87
2021/07/09 09:23:54;;;;;;;5.10;4.55;;;;;;;30.10;38.77;101591.42;1823758;78;20937;-86
2021/07/09 09:26:50;;;;;;;10.20;4.30;;;;;;;30.12;39.24;101592.03;1823779;78;20938;-89
2021/07/09 09:29:33;;;;;;;5.70;4.40;;;;;;;30.09;39.92;101591.12;1823424;78;20972;-86
2021/07/09 09:32:05;;;;;;;5.90;4.40;;;;;;;30.08;39.44;101582.80;1826345;78;20977;-86
2021/07/09 09:34:46;;;;;;;4.92;4.22;;;;;;;30.14;39.80;101585.09;1740359;81;21768;-88
2021/07/09 09:37:22;;;;;;;5.05;4.15;;;;;;;30.20;38.75;101582.34;1800214;79;20992;-85
2021/07/09 09:39:49;;;;;;;6.05;4.42;;;;;;;30.19;38.21;101576.66;1767116;79;21012;-87
2021/07/09 09:42:25;;;;;;;7.85;3.95;;;;;;;30.27;38.23;101576.06;1781049;79;21014;-88
2021/07/09 09:45:02;;;;;;;4.90;4.40;;;;;;;30.33;39.51;101576.00;1785252;79;20922;-88
2021/07/09 09:47:35;;;;;;;4.53;3.95;;;;;;;30.40;39.99;101578.61;1767060;79;21148;-88
2021/07/09 09:50:07;;;;;;;3.85;3.55;;;;;;;30.45;37.91;101576.56;1793431;79;21060;-87
2021/07/09 09:52:38;;;;;;;5.30;3.77;;;;;;;30.47;37.48;101571.30;1764869;79;21071;-88
2021/07/09 09:55:10;;;;;;;8.37;4.93;;;;;;;30.50;37.91;101570.82;1784519;79;21092;-87
2021/07/09 09:57:40;;;;;;;8.23;4.20;;;;;;;30.58;40.06;101569.73;1762267;81;21032;-87
2021/07/09 10:00:10;;;;;;;4.10;3.70;;;;;;;30.66;38.32;101569.42;1738780;81;22185;-88
2021/07/09 10:02:38;;;;;;;4.60;3.90;;;;;;;30.73;41.67;101564.47;1740670;79;28246;-89
2021/07/09 10:05:05;;;;;;;4.65;4.20;;;;;;;30.82;39.58;101567.14;1768579;79;20985;-89
2021/07/09 10:07:37;;;;;;;3.75;3.45;;;;;;;30.90;38.89;101561.44;1793887;78;21478;-90
2021/07/09 10:10:07;;;;;;;5.37;3.95;;;;;;;30.99;37.35;101555.20;1784406;79;21076;-89
2021/07/09 10:12:34;;;;;;;4.08;3.75;;;;;;;30.97;35.27;101555.95;1765866;80;21287;-90
2021/07/09 10:15:03;;;;;;;4.35;3.95;;;;;;;30.91;38.62;101552.84;1823236;77;21012;-88
2021/07/09 10:17:33;;;;;;;5.00;3.67;;;;;;;30.92;35.66;101549.11;1755365;79;21572;-89
2021/07/09 10:20:03;;;;;;;4.03;3.65;;;;;;;30.92;40.09;101542.39;1765145;80;21448;-89
2021/07/09 10:22:30;;;;;;;4.70;4.30;;;;;;;30.95;38.01;101544.09;1793389;78;22013;-88
2021/07/09 10:24:59;;;;;;;4.78;3.98;;;;;;;30.99;36.07;101539.91;1814784;78;21104;-87
2021/07/09 10:27:28;;;;;;;4.30;3.90;;;;;;;31.03;37.53;101538.92;1761574;80;21001;-88
2021/07/09 10:30:03;;;;;;;6.83;3.77;;;;;;;31.08;37.73;101543.07;1761723;79;21025;-88
2021/07/09 10:32:34;;;;;;;5.65;4.00;;;;;;;31.11;37.30;101536.44;1759202;80;21567;-88
2021/07/09 10:35:06;;;;;;;;;;;;;;;31.14;36.55;101532.76;1764507;79;21107;-89
2021/07/09 10:37:34;;;;;;;6.25;4.40;;;;;;;31.25;38.42;101519.56;1796097;78;21075;-88
2021/07/09 10:40:11;;;;;;;4.80;4.33;;;;;;;31.34;38.89;101516.83;1793917;80;21080;-89
2021/07/09 10:42:42;;;;;;;6.25;4.10;;;;;;;31.36;37.54;101517.42;1795803;78;21618;-88
2021/07/09 10:45:26;;;;;;;5.78;4.20;;;;;;;31.33;36.45;101516.53;1794634;78;21108;-88
2021/07/09 10:48:12;;;;;;;5.42;4.28;;;;;;;31.32;36.94;101512.20;1823864;78;20982;-88
2021/07/09 10:50:43;;;;;;;5.40;4.28;;;;;;;31.37;37.43;101502.89;1795681;78;21089;-88
2021/07/09 10:53:18;;;;;;;6.15;4.12;;;;;;;31.41;38.35;101496.52;1795767;78;20986;-88
2021/07/09 10:56:08;;;;;;;6.00;4.50;;;;;;;31.42;40.15;101499.50;1795735;78;21037;-87
2021/07/09 10:58:47;;;;;;;4.90;4.50;;;;;;;31.43;39.15;101497.94;1823264;78;21052;-88
2021/07/09 11:01:31;;;;;;;5.03;4.50;;;;;;;31.50;40.57;101489.73;1795827;78;20938;-87
2021/07/09 11:04:08;;;;;;;5.62;4.80;;;;;;;31.61;39.71;101490.27;1795434;78;21129;-87
2021/07/09 11:06:43;;;;;;;7.35;4.62;;;;;;;31.71;36.29;101484.30;1791299;78;21080;-87
2021/07/09 11:09:13;;;;;;;5.42;3.87;;;;;;;31.75;36.63;101484.14;1786385;78;21045;-87
2021/07/09 11:11:49;;;;;;;;;;;;;;;31.80;35.39;101478.55;1825443;78;21092;-87
2021/07/09 11:14:20;;;;;;;7.42;3.98;;;;;;;31.86;39.72;101470.87;1795905;78;20178;-86
2021/07/09 11:16:58;;;;;;;4.15;3.85;;;;;;;31.91;37.06;101465.61;1795727;78;21177;-86
2021/07/09 11:19:24;;;;;;;5.33;4.35;;;;;;;31.97;38.96;101453.87;1795677;78;21049;-86
2021/07/09 11:21:57;;;;;;;5.12;4.62;;;;;;;32.01;38.32;101454.21;1760369;79;21061;-86
2021/07/09 11:24:32;;;;;;;4.83;4.42;;;;;;;32.03;36.54;101455.60;1790246;79;21018;-87
2021/07/09 11:27:05;;;;;;;6.08;4.20;;;;;;;32.01;37.13;101451.52;1815346;77;20910;-87
2021/07/09 11:29:44;;;;;;;7.10;4.92;;;;;;;32.02;37.71;101455.85;1790307;79;21037;-86
2021/07/09 11:32:20;;;;;;;5.75;4.60;;;;;;;32.00;36.67;101448.02;1787498;79;21572;-87
2021/07/09 11:34:56;;;;;;;6.62;4.72;;;;;;;31.93;35.74;101451.36;1755082;80;20982;-87
2021/07/09 11:37:30;;;;;;;7.12;4.37;;;;;;;31.88;36.41;101444.02;1779493;78;21111;-88
2021/07/09 11:40:02;;;;;;;5.75;4.37;;;;;;;31.92;37.94;101441.67;1792656;79;21050;-86
2021/07/09 11:42:32;;;;;;;7.67;5.00;;;;;;;32.02;41.15;101438.34;1757845;79;22233;-86
2021/07/09 11:45:10;;;;;;;7.95;4.72;;;;;;;32.09;39.30;101433.64;1769215;80;21005;-86
2021/07/09 11:47:40;;;;;;;7.40;4.95;;;;;;;32.09;38.16;101430.94;1763346;81;21119;-86
2021/07/09 11:50:18;;;;;;;5.50;5.00;;;;;;;32.10;38.28;101427.19;1768766;81;21014;-86
2021/07/09 11:52:53;;;;;;;6.50;5.40;;;;;;;32.11;37.66;101422.09;1819494;78;21057;-86
2021/07/09 11:55:28;;;;;;;6.53;5.22;;;;;;;32.09;38.56;101429.05;1812988;78;21017;-86
2021/07/09 11:57:57;;;;;;;6.05;5.45;;;;;;;32.10;38.00;101422.61;1768746;79;21499;-86
2021/07/09 12:00:24;;;;;;;5.22;4.72;;;;;;;32.16;37.01;101414.64;1769740;79;21543;-86
2021/07/09 12:02:52;;;;;;;5.92;5.42;;;;;;;32.24;38.03;101415.09;1794429;79;21044;-85
2021/07/09 12:05:23;;;;;;;5.80;4.72;;;;;;;32.28;37.37;101404.64;1761528;79;20998;-86
2021/07/09 12:07:55;;;;;;;5.22;4.72;;;;;;;32.34;41.16;101395.59;1794528;79;21054;-86
2021/07/09 12:10:32;;;;;;;5.97;5.10;;;;;;;32.35;41.04;101400.47;1794473;79;21041;-85
2021/07/09 12:13:03;;;;;;;7.70;5.30;;;;;;;32.31;40.00;101400.64;1794406;79;21115;-84
2021/07/09 12:15:36;;;;;;;6.50;5.17;;;;;;;32.30;38.28;101402.53;1793659;79;21010;-86
2021/07/09 12:18:11;;;;;;;5.28;4.78;;;;;;;32.22;39.05;101400.23;1782869;80;21037;-86
2021/07/09 12:20:43;;;;;;;5.95;5.45;;;;;;;32.16;38.12;101390.41;1782954;80;21814;-87
2021/07/09 12:23:16;;;;;;;5.13;4.63;;;;;;;32.06;35.23;101404.48;1773876;79;21033;-85
2021/07/09 12:25:59;;;;;;;6.17;5.42;;;;;;;31.91;36.44;101397.75;1793621;79;21105;-85
2021/07/09 12:28:30;;;;;;;10.20;5.65;;;;;;;31.89;36.36;101397.70;1794334;79;21008;-85
2021/07/09 12:31:01;;;;;;;5.40;4.90;;;;;;;31.91;35.92;101390.22;1768565;79;21088;-84
2021/07/09 12:33:36;;;;;;;9.40;5.47;;;;;;;31.94;37.74;101400.48;1794997;79;21182;-84
2021/07/09 12:36:09;;;;;;;5.47;4.83;;;;;;;32.04;37.59;101401.23;1795142;79;20942;-83
2021/07/09 12:38:40;;;;;;;7.50;5.03;;;;;;;32.15;40.44;101390.11;1744018;79;21009;-85
2021/07/09 12:41:11;;;;;;;25.85;6.17;;;;;;;32.25;39.98;101388.44;1786903;79;20941;-85
2021/07/09 12:43:50;;;;;;;6.10;5.50;;;;;;;32.33;39.63;101387.21;1764606;79;21080;-85
2021/07/09 12:46:21;;;;;;;5.55;5.05;;;;;;;32.40;37.30;101382.52;1743884;79;21494;-84
2021/07/09 12:48:58;;;;;;;6.12;5.47;;;;;;;32.46;37.79;101382.59;1769013;79;22017;-84
2021/07/09 12:51:33;;;;;;;6.62;5.35;;;;;;;32.50;37.93;101381.02;1767494;79;21603;-85
2021/07/09 12:54:12;;;;;;;6.33;5.75;;;;;;;32.55;38.04;101375.73;1762914;81;21008;-85
2021/07/09 12:56:51;;;;;;;9.28;5.90;;;;;;;32.63;38.27;101380.72;1763851;81;21583;-85
2021/07/09 12:59:23;;;;;;;5.83;5.22;;;;;;;32.65;34.90;101375.07;1759312;81;21081;-84
2021/07/09 13:02:05;;;;;;;5.72;5.22;;;;;;;32.62;37.76;101372.34;1763739;80;21109;-86
2021/07/09 13:04:36;;;;;;;17.17;6.37;;;;;;;32.74;37.88;101373.60;1778308;79;21475;-83
2021/07/09 13:07:16;;;;;;;8.63;5.40;;;;;;;32.83;37.67;101373.50;1793125;79;20992;-87
2021/07/09 13:09:46;;;;;;;7.28;5.85;;;;;;;32.90;36.50;101365.22;1792395;79;21035;-84
2021/07/09 13:12:21;;;;;;;7.05;6.15;;;;;;;32.94;38.07;101361.50;1770431;79;22115;-86
2021/07/09 13:15:02;;;;;;;8.03;6.08;;;;;;;32.99;36.51;101361.59;1795533;79;21619;-85
2021/07/09 13:17:32;;;;;;;6.53;5.92;;;;;;;33.02;38.63;101353.81;1779763;79;21128;-84
2021/07/09 13:20:14;;;;;;;6.70;6.05;;;;;;;33.04;37.60;101356.25;1748442;81;21145;-85
2021/07/09 13:22:50;;;;;;;10.72;6.05;;;;;;;33.10;36.13;101355.25;1747327;81;21101;-86
2021/07/09 13:25:20;;;;;;;6.62;6.03;;;;;;;33.00;36.96;101349.20;1743971;81;21096;-86
2021/07/09 13:28:10;;;;;;;6.33;5.73;;;;;;;32.77;37.34;101354.25;1761832;80;20948;-85
2021/07/09 13:30:36;;;;;;;6.35;5.75;;;;;;;32.62;36.65;101349.43;1734588;81;21594;-85
2021/07/09 13:33:10;;;;;;;6.62;5.85;;;;;;;32.60;37.22;101343.46;1772819;80;21086;-83
2021/07/09 13:35:37;;;;;;;8.20;6.42;;;;;;;32.59;36.15;101340.48;1724869;81;21485;-84
2021/07/09 13:38:04;;;;;;;8.48;6.00;;;;;;;32.49;35.66;101336.30;1744979;81;21054;-84
2021/07/09 13:40:31;;;;;;;9.70;6.60;;;;;;;32.43;37.18;101342.13;1746350;81;21020;-86
2021/07/09 13:42:58;;;;;;;9.23;6.55;;;;;;;32.45;37.48;101339.18;1769691;80;21015;-84
2021/07/09 13:45:25;;;;;;;6.92;6.15;;;;;;;32.48;36.66;101332.77;1769320;80;21047;-85
2021/07/09 13:47:52;;;;;;;7.37;6.33;;;;;;;32.46;37.60;101329.49;1748298;81;21055;-84
2021/07/09 13:50:19;;;;;;;12.18;6.53;;;;;;;32.43;37.16;101327.31;1745815;80;21067;-83
2021/07/09 13:52:48;;;;;;;9.23;6.45;;;;;;;32.41;38.31;101326.73;1762829;80;21010;-83
2021/07/09 13:55:15;;;;;;;9.88;6.45;;;;;;;32.45;37.98;101324.36;1733053;81;21118;-82
2021/07/09 13:57:46;;;;;;;12.23;6.62;;;;;;;32.52;37.98;101320.45;1758369;81;21419;-84
2021/07/09 14:00:16;;;;;;;7.17;6.58;;;;;;;32.59;38.17;101320.80;1758405;80;21577;-83
2021/07/09 14:02:44;;;;;;;7.15;6.10;;;;;;;32.65;37.88;101313.88;1758600;80;21492;-82
2021/07/09 14:05:11;;;;;;;7.08;6.47;;;;;;;32.67;37.66;101315.80;1754168;81;21082;-83
2021/07/09 14:07:38;;;;;;;8.25;6.42;;;;;;;32.70;39.34;101316.67;1759762;80;21062;-84
2021/07/09 14:10:07;;;;;;;7.08;6.47;;;;;;;32.71;37.70;101310.22;1747880;81;21561;-83
2021/07/09 14:12:35;;;;;;;7.60;6.78;;;;;;;32.60;37.39;101307.08;1748431;81;21105;-83
2021/07/09 14:15:04;;;;;;;9.10;6.90;;;;;;;32.45;38.28;101304.95;1746791;80;21081;-84
2021/07/09 14:17:30;;;;;;;8.85;7.12;;;;;;;32.45;38.28;101304.95;1755160;80;20951;-82
2021/07/09 14:19:57;;;;;;;7.33;6.72;;;;;;;32.34;37.58;101308.02;1777575;80;21045;-82
2021/07/09 14:22:25;;;;;;;6.85;6.25;;;;;;;32.33;40.17;101305.58;1777376;80;21532;-83
2021/07/09 14:24:52;;;;;;;9.58;6.95;;;;;;;32.24;38.24;101303.30;1777207;80;21543;-85
2021/07/09 14:27:21;;;;;;;8.30;7.42;;;;;;;31.92;39.99;101292.23;1777446;80;21482;-81
2021/07/09 14:29:48;;;;;;;7.17;6.25;;;;;;;31.92;39.99;101292.23;1777524;80;21061;-85
2021/07/09 14:32:17;;;;;;;6.50;5.90;;;;;;;31.91;40.15;101286.55;1769325;80;21119;-84
2021/07/09 14:34:44;;;;;;;8.15;7.05;;;;;;;31.92;38.76;101289.54;1777544;79;20970;-84
2021/07/09 14:37:11;;;;;;;9.25;7.95;;;;;;;31.87;40.76;101283.53;1755124;80;20994;-85
2021/07/09 14:39:38;;;;;;;7.95;7.25;;;;;;;31.87;41.29;101286.23;1755239;80;21862;-83
2021/07/09 14:42:06;;;;;;;9.70;7.90;;;;;;;31.87;41.90;101280.01;1755551;80;21030;-85
2021/07/09 14:44:34;;;;;;;9.05;7.95;;;;;;;31.89;40.75;101275.20;1777105;80;21643;-83
2021/07/09 14:47:01;;;;;;;10.23;7.83;;;;;;;31.86;41.17;101272.47;1777264;80;21556;-84
2021/07/09 14:49:28;;;;;;;9.08;7.50;;;;;;;31.78;40.95;101268.83;1755866;80;21006;-84
2021/07/09 14:51:55;;;;;;;8.70;7.90;;;;;;;31.76;42.35;101272.28;1777476;80;21145;-85
2021/07/09 14:54:23;;;;;;;12.10;8.23;;;;;;;31.80;41.76;101267.23;1755671;80;21049;-83
2021/07/09 14:56:50;;;;;;;9.55;8.63;;;;;;;31.86;42.54;101264.91;1755424;80;21002;-84
2021/07/09 14:59:17;;;;;;;11.35;8.78;;;;;;;31.87;42.29;101267.89;1755740;80;21143;-84
2021/07/09 15:01:45;;;;;;;14.47;8.93;;;;;;;31.80;41.50;101259.16;1755628;80;21599;-84
2021/07/09 15:04:13;;;;;;;10.03;7.85;;;;;;;31.72;42.61;101257.15;1759308;80;21895;-83
2021/07/09 15:06:40;;;;;;;9.33;8.10;;;;;;;31.66;43.39;101253.22;1715884;81;21036;-84
2021/07/09 15:09:08;;;;;;;10.63;7.95;;;;;;;31.65;42.78;101251.08;1739351;81;20997;-84
2021/07/09 15:11:35;;;;;;;13.40;8.50;;;;;;;31.57;42.82;101250.12;1759671;81;20981;-83
2021/07/09 15:14:02;;;;;;;9.25;8.35;;;;;;;31.49;45.32;101254.53;1760101;81;21060;-84
2021/07/09 15:16:30;;;;;;;10.55;8.85;;;;;;;31.41;46.08;101248.48;1763125;80;21774;-84
2021/07/09 15:18:57;;;;;;;14.20;9.20;;;;;;;31.32;45.67;101256.64;1764183;80;21014;-84
2021/07/09 15:21:24;;;;;;;12.70;9.08;;;;;;;31.21;46.20;101244.07;1715188;82;21027;-84
2021/07/09 15:23:52;;;;;;;11.40;9.30;;;;;;;31.13;47.34;101253.31;1752296;79;21988;-83
2021/07/09 15:26:19;;;;;;;10.85;8.83;;;;;;;31.08;47.18;101250.50;1774923;80;21041;-85
2021/07/09 15:28:46;;;;;;;9.65;8.30;;;;;;;31.01;47.55;101245.25;1775056;80;21177;-86
2021/07/09 15:31:13;;;;;;;174.18;17.40;;;;;;;30.97;47.93;101248.10;1752866;78;21014;-84
2021/07/09 15:33:40;;;;;;;10.25;9.10;;;;;;;30.92;47.92;101250.19;1736553;80;21085;-83
2021/07/09 15:36:07;;;;;;;10.18;9.18;;;;;;;30.90;49.08;101248.25;1775416;80;20994;-83
2021/07/09 15:38:39;;;;;;;12.20;8.28;;;;;;;30.88;48.62;101248.20;1751709;80;21886;-90
2021/07/09 15:41:07;;;;;;;10.20;8.73;;;;;;;30.84;49.17;101251.35;1752102;80;21041;-87
2021/07/09 15:43:35;;;;;;;10.08;8.53;;;;;;;30.81;49.30;101251.81;1751274;80;21096;-86
2021/07/09 15:46:01;;;;;;;10.98;8.33;;;;;;;30.81;50.55;101251.01;1751551;80;21088;-85
2021/07/09 15:48:28;;;;;;;14.85;8.60;;;;;;;30.80;52.40;101252.89;1751400;80;20995;-87
2021/07/09 15:50:56;;;;;;;10.05;8.70;;;;;;;30.80;55.20;101250.72;1751699;80;21465;-87
2021/07/09 15:53:23;;;;;;;10.28;8.33;;;;;;;30.81;54.26;101253.70;1751785;80;21498;-87
2021/07/09 15:55:50;;;;;;;11.05;9.25;;;;;;;30.77;57.35;101252.01;1726905;80;21065;-87
2021/07/09 15:58:18;;;;;;;14.38;8.80;;;;;;;30.67;53.63;101255.30;1751350;80;21002;-84
2021/07/09 16:00:47;;;;;;;11.68;10.08;;;;;;;30.57;55.85;101256.94;1751382;80;21450;-86
2021/07/09 16:03:17;;;;;;;10.38;9.28;;;;;;;30.45;57.18;101246.97;1774793;80;21073;-87
2021/07/09 16:05:47;;;;;;;13.48;10.35;;;;;;;30.35;58.27;101248.06;1751649;80;21607;-88
2021/07/09 16:08:14;;;;;;;16.57;11.18;;;;;;;30.25;59.40;101250.50;1743507;82;20936;-83
2021/07/09 16:10:42;;;;;;;11.68;10.35;;;;;;;30.14;64.00;101251.62;1715696;80;21014;-85
2021/07/09 16:13:12;;;;;;;14.60;9.45;;;;;;;30.06;69.62;101248.73;1753597;80;21029;-88
2021/07/09 16:15:39;;;;;;;11.57;8.68;;;;;;;29.96;71.68;101253.87;1728708;80;21125;-85
2021/07/09 16:18:06;;;;;;;13.43;9.93;;;;;;;29.82;71.00;101251.87;1761958;81;21089;-84
2021/07/09 16:20:35;;;;;;;10.08;9.13;;;;;;;29.68;73.93;101254.45;1740199;81;21064;-86
2021/07/09 16:23:02;;;;;;;13.48;8.98;;;;;;;29.50;75.48;101256.12;1744905;81;21072;-86
2021/07/09 16:25:29;;;;;;;13.20;9.30;;;;;;;29.37;81.08;101253.59;1744608;81;21026;-87
2021/07/09 16:27:56;;;;;;;14.00;8.98;;;;;;;29.24;84.98;101251.36;1733931;82;21929;-85
2021/07/09 16:30:23;;;;;;;10.90;8.98;;;;;;;29.10;87.52;101246.67;1744559;80;21545;-84
2021/07/09 16:32:50;;;;;;;10.53;9.40;;;;;;;28.98;91.98;101244.95;1733801;82;21053;-83
2021/07/09 16:35:22;;;;;;;13.68;10.13;;;;;;;28.82;90.61;101240.48;1709663;81;21081;-82
2021/07/09 16:37:51;;;;;;;13.22;9.73;;;;;;;28.67;92.25;101241.33;1733564;82;20994;-84
2021/07/09 16:40:19;;;;;;;13.75;9.88;;;;;;;28.53;93.66;101236.62;1744560;81;20983;-83
2021/07/09 16:42:50;;;;;;;14.15;9.70;;;;;;;28.43;93.78;101243.82;1754688;80;21050;-84
2021/07/09 16:45:17;;;;;;;14.98;10.10;;;;;;;28.37;95.84;101240.69;1769158;80;21004;-83
2021/07/09 16:47:44;;;;;;;15.83;10.28;;;;;;;28.30;97.31;101237.55;1757860;80;21042;-83
2021/07/09 16:50:11;;;;;;;18.00;9.98;;;;;;;28.24;98.90;101238.44;1742405;81;21081;-83
2021/07/09 16:52:38;;;;;;;13.15;10.23;;;;;;;28.16;100.00;101234.16;1752849;80;21065;-82
2021/07/09 16:55:07;;;;;;;14.23;10.65;;;;;;;28.07;100.00;101233.31;1778746;80;21079;-83
2021/07/09 16:57:33;;;;;;;17.92;10.48;;;;;;;27.98;100.00;101229.53;1801744;79;21034;-82
2021/07/09 17:00:00;;;;;;;12.80;10.75;;;;;;;27.90;100.00;101227.12;1794618;79;21056;-83
2021/07/09 17:02:27;;;;;;;16.90;11.57;;;;;;;27.82;100.00;101226.84;1772046;79;21034;-83
2021/07/09 17:04:54;;;;;;;11.97;10.65;;;;;;;27.73;100.00;101225.45;1748757;80;21050;-83
2021/07/09 17:07:21;;;;;;;13.93;10.63;;;;;;;27.63;100.00;101219.78;1732231;82;21830;-83
2021/07/09 17:09:48;;;;;;;20.97;12.30;;;;;;;27.49;100.00;101217.69;1732479;81;21058;-83
2021/07/09 17:12:15;;;;;;;19.80;11.68;;;;;;;27.33;100.00;101225.63;1732894;81;21070;-84
2021/07/09 17:14:43;;;;;;;14.07;11.40;;;;;;;27.19;100.00;101221.69;1732334;82;21137;-83
2021/07/09 17:17:10;;;;;;;16.50;11.63;;;;;;;27.11;100.00;101225.12;1729597;80;21042;-83
2021/07/09 17:19:38;;;;;;;16.80;10.82;;;;;;;27.02;100.00;101225.36;1700393;82;21014;-83
2021/07/09 17:22:05;;;;;;;18.42;11.95;;;;;;;26.93;100.00;101223.94;1700963;81;21038;-82
2021/07/09 17:24:34;;;;;;;17.62;11.78;;;;;;;26.83;100.00;101220.37;1736746;80;21081;-83
2021/07/09 17:27:02;;;;;;;16.97;11.80;;;;;;;26.76;100.00;101220.91;1737175;81;21526;-82
2021/07/09 17:29:29;;;;;;;21.27;11.28;;;;;;;26.70;100.00;101225.70;1734536;81;21996;-82
2021/07/09 17:31:57;;;;;;;28.83;13.60;;;;;;;26.61;100.00;101226.44;1725681;82;22227;-82
2021/07/09 17:34:24;;;;;;;33.58;14.23;;;;;;;26.50;100.00;101223.89;1708296;82;21012;-83
2021/07/09 17:36:53;;;;;;;36.35;15.63;;;;;;;26.41;100.00;101226.45;1751901;80;21013;-83
2021/07/09 17:39:20;;;;;;;27.37;14.83;;;;;;;26.32;100.00;101227.69;1748580;79;21363;-82
2021/07/09 17:41:47;;;;;;;18.65;13.55;;;;;;;26.26;100.00;101226.66;1741487;80;21050;-83
2021/07/09 17:44:14;;;;;;;18.60;12.35;;;;;;;26.20;100.00;101223.48;1740188;81;21067;-82
2021/07/09 17:46:41;;;;;;;25.37;13.83;;;;;;;26.18;100.00;101233.52;1757262;79;20982;-84
2021/07/09 17:49:09;;;;;;;27.52;15.53;;;;;;;26.14;100.00;101231.28;1748217;81;21500;-84
2021/07/09 17:51:37;;;;;;;25.52;16.82;;;;;;;26.10;100.00;101227.36;1764729;80;20997;-84
2021/07/09 17:54:04;;;;;;;24.90;15.15;;;;;;;26.07;100.00;101238.44;1734324;80;21029;-83
2021/07/09 17:56:32;;;;;;;20.65;13.45;;;;;;;26.02;100.00;101241.39;1746979;81;21949;-85
2021/07/09 17:58:59;;;;;;;18.17;13.05;;;;;;;25.95;100.00;101237.37;1761591;80;21027;-85
2021/07/09 18:01:27;;;;;;;18.35;13.08;;;;;;;25.87;100.00;101238.89;1728937;81;21029;-84
2021/07/09 18:03:55;;;;;;;21.05;13.15;;;;;;;25.75;100.00;101240.00;1749236;80;21085;-84
2021/07/09 18:06:22;;;;;;;14.93;13.03;;;;;;;25.62;100.00;101235.45;1721293;80;21086;-84
2021/07/09 18:08:50;;;;;;;25.32;13.88;;;;;;;25.52;100.00;101238.50;1754738;80;21052;-85
2021/07/09 18:11:18;;;;;;;22.10;13.28;;;;;;;25.42;100.00;101240.21;1764897;80;20984;-85
2021/07/09 18:13:46;;;;;;;16.97;12.70;;;;;;;25.31;100.00;101242.07;1750225;80;21010;-84
2021/07/09 18:16:13;;;;;;;15.65;12.47;;;;;;;25.17;100.00;101239.35;1744603;81;21178;-84
2021/07/09 18:18:40;;;;;;;19.50;11.97;;;;;;;25.09;100.00;101235.52;1731198;82;21582;-85
2021/07/09 18:21:07;;;;;;;14.18;12.63;;;;;;;25.00;100.00;101229.51;1708535;82;21514;-84
2021/07/09 18:23:34;;;;;;;15.95;12.43;;;;;;;24.94;100.00;101235.62;1703588;82;21066;-84
2021/07/09 18:26:02;;;;;;;15.75;11.60;;;;;;;24.89;100.00;101232.22;1731696;82;21034;-85
2021/07/09 18:28:31;;;;;;;24.10;12.13;;;;;;;24.85;100.00;101230.98;1731190;81;21549;-85
2021/07/09 18:30:57;;;;;;;21.20;12.47;;;;;;;24.81;100.00;101228.90;1727716;81;21043;-85
2021/07/09 18:33:24;;;;;;;24.45;14.95;;;;;;;24.75;100.00;101231.83;1735917;81;21794;-86
2021/07/09 18:35:51;;;;;;;18.62;11.85;;;;;;;24.70;100.00;101226.27;1734537;81;21538;-86
2021/07/09 18:38:18;;;;;;;14.73;10.65;;;;;;;24.64;100.00;101226.50;1708346;82;21090;-87
2021/07/09 18:40:46;;;;;;;15.23;10.63;;;;;;;24.60;100.00;101231.08;1663386;81;21180;-85
2021/07/09 18:43:14;;;;;;;17.37;10.55;;;;;;;24.55;100.00;101227.66;1744482;81;21051;-84
2021/07/09 18:45:41;;;;;;;12.60;10.25;;;;;;;24.48;100.00;101227.59;1719702;81;22332;-85
2021/07/09 18:48:11;;;;;;;13.15;9.93;;;;;;;24.44;100.00;101231.67;1701429;82;21572;-86
2021/07/09 18:50:38;;;;;;;15.80;10.23;;;;;;;24.41;100.00;101232.05;1672767;85;21011;-86
2021/07/09 18:53:06;;;;;;;11.60;9.80;;;;;;;24.39;100.00;101224.78;1672763;85;21105;-86
2021/07/09 18:55:34;;;;;;;14.80;10.38;;;;;;;24.36;100.00;101227.83;1672613;85;20999;-86
2021/07/09 18:58:02;;;;;;;11.57;10.38;;;;;;;24.31;100.00;101227.06;1718585;82;21180;-85
2021/07/09 19:00:29;;;;;;;13.93;10.23;;;;;;;24.28;100.00;101230.62;1730951;81;21023;-85
2021/07/09 19:02:56;;;;;;;15.53;9.83;;;;;;;24.25;100.00;101228.65;1708569;82;21090;-86
2021/07/09 19:05:23;;;;;;;15.15;9.75;;;;;;;24.24;100.00;101226.19;1708351;82;21061;-86
2021/07/09 19:07:50;;;;;;;12.70;10.03;;;;;;;24.21;100.00;101231.88;1708615;82;21627;-84
2021/07/09 19:10:20;;;;;;;14.33;10.58;;;;;;;24.17;100.00;101226.12;1708197;82;21052;-84
2021/07/09 19:12:48;;;;;;;14.70;10.28;;;;;;;24.15;100.00;101229.50;1705098;82;21085;-85
2021/07/09 19:15:20;;;;;;;15.60;10.15;;;;;;;24.12;100.00;101227.20;1691262;82;21575;-86
2021/07/09 19:17:53;;;;;;;11.45;9.98;;;;;;;24.07;100.00;101220.31;1765533;80;21071;-85
2021/07/09 19:20:25;;;;;;;12.03;10.55;;;;;;;24.04;100.00;101224.16;1758216;80;20948;-85
2021/07/09 19:22:54;;;;;;;13.83;9.18;;;;;;;24.01;100.00;101227.22;1714557;82;21086;-85
2021/07/09 19:25:23;;;;;;;15.40;10.85;;;;;;;23.99;100.00;101227.09;1723161;81;21098;-86
2021/07/09 19:27:50;;;;;;;12.00;10.10;;;;;;;23.92;100.00;101221.14;1737656;82;21015;-85
2021/07/09 19:30:17;;;;;;;13.00;9.73;;;;;;;23.89;100.00;101220.21;1714583;82;21971;-85
2021/07/09 19:32:44;;;;;;;11.85;10.35;;;;;;;23.86;100.00;101216.59;1684644;83;21022;-85
2021/07/09 19:35:14;;;;;;;14.55;10.40;;;;;;;23.81;100.00;101215.02;1714565;82;21353;-86
2021/07/09 19:37:43;;;;;;;10.88;9.78;;;;;;;23.77;100.00;101212.40;1706855;84;21015;-86
2021/07/09 19:40:19;;;;;;;13.53;10.10;;;;;;;23.74;100.00;101212.80;1691500;82;21030;-86
2021/07/09 19:42:49;;;;;;;12.93;9.85;;;;;;;23.71;100.00;101209.17;1685970;84;21090;-86
2021/07/09 19:45:18;;;;;;;13.10;10.15;;;;;;;23.68;100.00;101206.39;1732030;82;20967;-85
2021/07/09 19:47:45;;;;;;;13.45;9.38;;;;;;;23.66;100.00;101207.59;1729285;82;21457;-86
2021/07/09 19:50:13;;;;;;;11.18;10.08;;;;;;;23.63;100.00;101212.27;1685231;83;21100;-85
2021/07/09 19:52:40;;;;;;;11.55;9.75;;;;;;;23.65;100.00;101211.26;1713045;82;21040;-84
2021/07/09 19:55:11;;;;;;;11.55;9.13;;;;;;;23.62;100.00;101210.62;1687189;83;21015;-86
2021/07/09 19:57:39;;;;;;;12.93;9.93;;;;;;;23.60;100.00;101206.50;1693678;83;21080;-85
2021/07/09 20:00:12;;;;;;;9.55;8.55;;;;;;;23.58;100.00;101209.84;1717729;82;21304;-86
2021/07/09 20:02:39;;;;;;;10.60;9.50;;;;;;;23.55;100.00;101204.92;1697237;83;21615;-86
2021/07/09 20:05:08;;;;;;;15.15;10.13;;;;;;;23.50;100.00;101208.14;1689581;83;21041;-85
2021/07/09 20:07:37;;;;;;;11.80;9.83;;;;;;;23.47;100.00;101209.83;1717403;82;21026;-87
2021/07/09 20:10:08;;;;;;;16.62;9.58;;;;;;;23.44;100.00;101205.72;1692732;83;21061;-86
2021/07/09 20:12:39;;;;;;;11.97;10.50;;;;;;;23.44;100.00;101208.86;1747331;79;21087;-86
2021/07/09 20:15:08;;;;;;;11.03;9.65;;;;;;;23.43;100.00;101209.38;1748470;80;21722;-87
2021/07/09 20:17:37;;;;;;;;;;;;;;;23.39;100.00;101202.80;1715649;80;21041;-85
2021/07/09 20:20:06;;;;;;;12.80;9.58;;;;;;;23.39;100.00;101204.62;1716775;82;20146;-87
2021/07/09 20:22:35;;;;;;;;;;;;;;;23.34;100.00;101206.50;1741667;81;20980;-87
2021/07/09 20:25:12;;;;;;;11.08;9.83;;;;;;;23.33;100.00;101206.70;1716142;82;21232;-86
2021/07/09 20:27:41;;;;;;;13.32;9.50;;;;;;;23.33;100.00;101200.06;1713975;82;21034;-84
2021/07/09 20:30:09;;;;;;;14.75;10.13;;;;;;;23.33;100.00;101208.84;1684451;81;21070;-84
2021/07/09 20:32:37;;;;;;;16.07;10.98;;;;;;;23.32;100.00;101201.88;1723896;81;21059;-84
2021/07/09 20:35:05;;;;;;;10.38;9.38;;;;;;;23.33;100.00;101201.38;1736187;81;21039;-84
2021/07/09 20:37:32;;;;;;;10.80;9.70;;;;;;;23.34;100.00;101204.37;1760413;80;21155;-83
2021/07/09 20:40:03;;;;;;;11.60;9.70;;;;;;;23.29;100.00;101200.42;1763365;80;21117;-85
2021/07/09 20:42:30;;;;;;;11.57;10.20;;;;;;;23.23;100.00;101199.03;1744208;81;21141;-85
2021/07/09 20:44:57;;;;;;;12.05;10.85;;;;;;;23.16;100.00;101202.88;1718521;82;21617;-85